Time;durP1;ratioP1;P1;durP2;ratioP2;P2;SDS_P1;SDS_P2;PMS_P1;PMS_P2;Temp;Humidity;BMP_temperature;BMP_pressure;BME280_temperature;BME280_humidity;BME280_pressure;Samples;Min_cycle;Max_cycle;Signal;HPM_P1;HPM_P2
2022/04/20 00:02:00;;;;;;;0.00;0.00;;;;;;;5.51;77.99;98822.53;4879569;29;20037;-78
2022/04/20 00:04:25;;;;;;;0.20;0.20;;;;;;;5.52;77.87;98824.13;4879895;29;20025;-79
2022/04/20 00:06:50;;;;;;;0.00;0.00;;;;;;;5.50;77.69;98831.53;4879141;29;20516;-79
2022/04/20 00:09:16;;;;;;;0.00;0.00;;;;;;;5.47;77.66;98822.22;4879239;29;20397;-78
2022/04/20 00:11:41;;;;;;;0.00;0.00;;;;;;;5.51;77.71;98820.66;4879288;29;20036;-78
2022/04/20 00:14:07;;;;;;;0.00;0.00;;;;;;;5.48;77.41;98826.47;4898322;29;20036;-78
2022/04/20 00:16:32;;;;;;;0.00;0.00;;;;;;;5.41;77.45;98823.19;4891819;29;20088;-79
2022/04/20 00:18:58;;;;;;;0.00;0.00;;;;;;;5.39;77.53;98820.00;4879049;29;20056;-78
2022/04/20 00:21:43;;;;;;;0.00;0.00;;;;;;;5.40;77.67;98825.03;4881814;29;20467;-83
2022/04/20 00:24:45;;;;;;;0.00;0.00;;;;;;;5.32;77.78;98814.06;5262709;23;21212;-82
2022/04/20 00:30:13;;;;;;;0.00;0.00;;;;;;;5.37;77.84;98819.44;5008290;23;20053;-81
2022/04/20 00:35:29;;;;;;;0.00;0.00;;;;;;;5.25;78.33;98828.31;5429348;23;20060;-81
2022/04/20 00:37:55;;;;;;;0.00;0.00;;;;;;;5.24;77.71;98837.31;5129483;23;20057;-80
2022/04/20 00:40:20;;;;;;;0.00;0.00;;;;;;;5.26;78.05;98842.34;4862692;29;20041;-80
2022/04/20 00:42:47;;;;;;;0.00;0.00;;;;;;;5.22;77.56;98843.91;4862371;29;20470;-79
2022/04/20 00:45:13;;;;;;;0.00;0.00;;;;;;;5.24;77.42;98842.63;4862945;29;20036;-80
2022/04/20 00:47:44;;;;;;;0.00;0.00;;;;;;;5.20;76.94;98846.81;4863411;29;20037;-80
2022/04/20 00:50:11;;;;;;;0.00;0.00;;;;;;;5.16;76.18;98848.31;4863274;29;20037;-80
2022/04/20 00:52:37;;;;;;;0.00;0.00;;;;;;;5.08;76.44;98848.78;4864507;29;20037;-80
2022/04/20 00:55:05;;;;;;;0.00;0.00;;;;;;;5.03;76.36;98859.28;4863968;29;20029;-80
2022/04/20 00:57:31;;;;;;;0.00;0.00;;;;;;;4.95;76.22;98856.00;4887599;29;20037;-82
2022/04/20 01:00:00;;;;;;;0.00;0.00;;;;;;;4.87;76.35;98863.56;4863831;29;20116;-80
2022/04/20 01:02:30;;;;;;;0.00;0.00;;;;;;;4.79;76.17;98857.63;4863258;29;20047;-80
2022/04/20 01:04:56;;;;;;;0.00;0.00;;;;;;;4.74;76.40;98864.72;4879261;29;20493;-80
2022/04/20 01:07:46;;;;;;;0.00;0.00;;;;;;;4.69;76.49;98864.63;4867383;29;20036;-83
2022/04/20 01:19:40;;;;;;;0.00;0.00;;;;;;;4.40;76.69;98852.25;4891919;29;20093;-80
2022/04/20 01:22:07;;;;;;;0.20;0.20;;;;;;;4.42;76.41;98857.31;4865657;29;20614;-82
2022/04/20 01:24:33;;;;;;;0.30;0.30;;;;;;;4.39;76.66;98857.81;4864927;29;20032;-81
2022/04/20 01:39:56;;;;;;;0.00;0.00;;;;;;;4.12;76.06;98856.56;4860113;29;20060;-79
2022/04/20 01:42:21;;;;;;;0.00;0.00;;;;;;;4.08;75.86;98855.44;4859149;29;20129;-79
2022/04/20 01:44:50;;;;;;;0.00;0.00;;;;;;;4.05;75.94;98853.25;4861943;29;20084;-83
2022/04/20 01:47:21;;;;;;;;;;;;;;;3.99;75.96;98851.56;4875255;29;20033;-83
2022/04/20 01:49:46;;;;;;;0.10;0.10;;;;;;;3.94;76.24;98846.19;4878204;29;19916;-83
2022/04/20 01:52:12;;;;;;;0.00;0.00;;;;;;;3.91;76.01;98841.38;4868573;29;20036;-81
2022/04/20 01:54:39;;;;;;;0.00;0.00;;;;;;;3.87;76.38;98851.63;4869804;29;20062;-83
2022/04/20 01:57:06;;;;;;;0.00;0.00;;;;;;;3.81;76.33;98847.28;4867062;29;20563;-80
2022/04/20 01:59:31;;;;;;;0.00;0.00;;;;;;;3.81;76.71;98836.69;4859939;29;20037;-78
2022/04/20 02:04:41;;;;;;;0.00;0.00;;;;;;;3.82;76.65;98840.94;4861676;29;20080;-77
2022/04/20 02:07:06;;;;;;;0.00;0.00;;;;;;;3.81;76.64;98828.75;4860650;29;20057;-77
2022/04/20 02:09:32;;;;;;;0.00;0.00;;;;;;;3.79;76.81;98830.84;4859666;29;20036;-79
2022/04/20 02:11:57;;;;;;;0.00;0.00;;;;;;;3.82;76.91;98836.47;4859172;29;20398;-78
2022/04/20 02:28:14;;;;;;;0.00;0.00;;;;;;;3.72;76.61;98841.53;4859849;29;20502;-80
2022/04/20 02:30:54;;;;;;;0.00;0.00;;;;;;;3.72;76.79;98843.41;4870293;29;20042;-84
2022/04/20 02:35:57;;;;;;;0.00;0.00;;;;;;;3.63;76.80;98838.47;5245538;23;20065;-80
2022/04/20 02:38:23;;;;;;;0.00;0.00;;;;;;;3.58;76.63;98833.09;4859031;29;20092;-79
2022/04/20 02:40:50;;;;;;;0.00;0.00;;;;;;;3.54;76.45;98839.91;4859213;29;20029;-79
2022/04/20 02:43:16;;;;;;;0.00;0.00;;;;;;;3.53;76.72;98831.16;4860548;29;20108;-80
2022/04/20 02:45:41;;;;;;;0.00;0.00;;;;;;;3.51;77.20;98835.84;4858911;29;20057;-79
2022/04/20 02:48:07;;;;;;;0.00;0.00;;;;;;;3.47;77.04;98837.38;4859317;29;20128;-81
2022/04/20 02:51:12;;;;;;;0.00;0.00;;;;;;;3.36;77.82;98833.72;5280344;23;20112;-84
2022/04/20 03:04:00;;;;;;;0.00;0.00;;;;;;;3.44;78.37;98843.16;5395725;23;20057;-82
2022/04/20 03:45:16;;;;;;;0.00;0.00;;;;;;;3.92;77.43;98872.06;6011235;23;20112;31
2022/04/20 03:48:09;;;;;;;;;;;;;;;4.13;77.00;98870.59;5307866;23;20057;-80
2022/04/20 03:55:06;;;;;;;0.00;0.00;;;;;;;4.88;76.22;98878.41;5214433;23;20059;31
2022/04/20 03:57:52;;;;;;;0.00;0.00;;;;;;;5.31;74.73;98876.91;4837115;29;20054;-80
2022/04/20 04:00:20;;;;;;;0.00;0.00;;;;;;;5.57;73.05;98863.97;4834973;29;20034;-78
2022/04/20 04:02:46;;;;;;;0.00;0.00;;;;;;;5.90;71.97;98875.47;4815516;29;20793;-78
2022/04/20 04:05:11;;;;;;;0.00;0.00;;;;;;;6.27;72.46;98876.69;4839400;29;20029;-79
2022/04/20 04:10:29;;;;;;;0.00;0.00;;;;;;;7.22;70.53;98894.66;4963426;23;20040;-84
2022/04/20 04:13:03;;;;;;;0.00;0.00;;;;;;;7.65;69.35;98890.09;4871705;29;20045;-80
2022/04/20 04:15:29;;;;;;;0.00;0.00;;;;;;;8.12;66.67;98887.56;4871540;29;20096;-78
2022/04/20 04:21:04;;;;;;;0.00;0.00;;;;;;;9.03;62.64;98887.06;4876505;29;20525;-79
2022/04/20 04:27:11;;;;;;;0.00;0.00;;;;;;;10.03;59.79;98898.75;4833733;29;20057;-80
2022/04/20 04:29:38;;;;;;;0.00;0.00;;;;;;;10.38;57.32;98901.50;4824936;29;20422;-77
2022/04/20 04:32:04;;;;;;;0.00;0.00;;;;;;;10.68;56.89;98900.47;4824738;29;20041;-76
2022/04/20 04:34:29;;;;;;;0.00;0.00;;;;;;;11.04;55.48;98910.06;4824511;29;20051;-77
2022/04/20 04:36:55;;;;;;;0.00;0.00;;;;;;;11.44;54.37;98909.94;4821568;29;20146;-77
2022/04/20 04:39:22;;;;;;;0.10;0.10;;;;;;;11.69;53.08;98912.31;4821605;29;20053;-75
2022/04/20 04:41:49;;;;;;;0.00;0.00;;;;;;;12.03;52.56;98915.16;4821521;29;20079;-77
2022/04/20 04:44:19;;;;;;;0.00;0.00;;;;;;;12.41;52.02;98915.16;4821709;29;20054;-75
2022/04/20 04:49:29;;;;;;;0.00;0.00;;;;;;;12.94;50.33;98917.53;4821548;29;20077;-77
2022/04/20 04:51:56;;;;;;;0.00;0.00;;;;;;;13.21;49.46;98921.34;4821683;29;20495;-77
2022/04/20 04:54:22;;;;;;;0.00;0.00;;;;;;;13.58;48.94;98919.59;4833498;29;20061;-75
2022/04/20 04:56:47;;;;;;;0.00;0.00;;;;;;;13.79;48.34;98921.09;4860790;29;20037;-75
2022/04/20 04:59:13;;;;;;;0.10;0.10;;;;;;;14.09;47.86;98917.75;4860893;29;20034;-77
2022/04/20 05:01:38;;;;;;;0.10;0.10;;;;;;;14.46;47.07;98909.69;4860644;29;20061;-77
2022/04/20 05:04:05;;;;;;;0.00;0.00;;;;;;;14.64;45.60;98905.22;4860582;29;20454;-77
2022/04/20 05:06:31;;;;;;;0.10;0.10;;;;;;;14.89;45.89;98909.22;4860607;29;20030;-77
2022/04/20 05:08:56;;;;;;;0.00;0.00;;;;;;;15.20;45.18;98902.25;4860651;29;20029;-77
2022/04/20 05:11:21;;;;;;;0.00;0.00;;;;;;;15.47;45.16;98903.16;4860795;29;20073;-77
2022/04/20 05:13:47;;;;;;;0.00;0.00;;;;;;;15.75;44.11;98901.00;4860284;29;20029;-77
2022/04/20 05:16:12;;;;;;;0.10;0.10;;;;;;;15.93;44.00;98901.88;4843860;29;20036;-77
2022/04/20 05:18:38;;;;;;;0.10;0.10;;;;;;;16.17;44.20;98903.31;4860146;29;20033;-77
2022/04/20 05:21:03;;;;;;;0.00;0.00;;;;;;;16.39;44.34;98899.66;4860609;29;20150;-77
2022/04/20 05:23:29;;;;;;;0.10;0.10;;;;;;;16.51;43.31;98893.63;4860123;29;20029;-77
2022/04/20 05:25:54;;;;;;;0.10;0.10;;;;;;;16.55;43.32;98886.50;4843715;29;20026;-77
2022/04/20 05:28:20;;;;;;;0.10;0.10;;;;;;;16.68;43.04;98894.72;4860636;29;20033;-77
2022/04/20 05:30:45;;;;;;;0.15;0.15;;;;;;;16.79;42.62;98896.75;4843467;29;20036;-76
2022/04/20 05:33:12;;;;;;;0.00;0.00;;;;;;;16.93;42.42;98901.19;4843785;29;20040;-77
2022/04/20 05:35:37;;;;;;;0.10;0.10;;;;;;;17.04;42.49;98883.56;4859619;29;20395;-75
2022/04/20 05:43:30;;;;;;;0.00;0.00;;;;;;;17.60;40.85;98896.97;4859649;29;20035;-75
2022/04/20 05:45:56;;;;;;;0.15;0.15;;;;;;;17.76;40.32;98891.81;4859751;29;20026;-75
2022/04/20 05:48:21;;;;;;;0.00;0.00;;;;;;;17.88;40.85;98887.59;4842439;29;20033;-75
2022/04/20 05:50:46;;;;;;;0.00;0.00;;;;;;;18.06;40.29;98888.28;4859964;29;20041;-75
2022/04/20 05:53:12;;;;;;;0.00;0.00;;;;;;;18.16;40.13;98895.22;4859614;29;20057;-75
2022/04/20 05:55:38;;;;;;;0.00;0.00;;;;;;;18.31;39.77;98894.63;4859412;29;20037;-75
2022/04/20 05:58:03;;;;;;;0.00;0.00;;;;;;;18.35;39.67;98892.06;4859269;29;20520;-75
2022/04/20 06:00:30;;;;;;;0.10;0.10;;;;;;;18.36;39.49;98889.00;4859280;29;20038;-75
2022/04/20 06:02:56;;;;;;;0.10;0.10;;;;;;;18.44;39.35;98889.28;4859132;29;20136;-76
2022/04/20 06:05:22;;;;;;;0.00;0.00;;;;;;;18.53;39.57;98888.06;4859541;29;20235;-75
2022/04/20 06:07:48;;;;;;;0.00;0.00;;;;;;;18.58;38.48;98886.25;4859091;29;20466;-75
2022/04/20 06:10:13;;;;;;;0.00;0.00;;;;;;;18.54;38.36;98883.44;4841948;29;20049;-76
2022/04/20 06:12:39;;;;;;;0.00;0.00;;;;;;;18.48;38.17;98890.19;4842105;29;20485;-75
2022/04/20 06:15:06;;;;;;;0.00;0.00;;;;;;;18.29;37.78;98883.34;4859188;29;20486;-75
2022/04/20 06:17:32;;;;;;;0.10;0.10;;;;;;;18.01;38.20;98878.44;4858730;29;20029;-76
2022/04/20 06:19:57;;;;;;;0.15;0.15;;;;;;;17.81;38.07;98881.91;4858585;29;20033;-75
2022/04/20 06:22:23;;;;;;;0.10;0.10;;;;;;;17.33;38.31;98878.50;4858466;29;20490;-77
2022/04/20 06:24:48;;;;;;;0.10;0.10;;;;;;;17.05;38.83;98881.63;4858368;29;20885;-76
2022/04/20 06:27:15;;;;;;;0.10;0.10;;;;;;;16.76;39.38;98869.59;4858590;29;20029;-76
2022/04/20 06:29:40;;;;;;;0.00;0.00;;;;;;;16.56;40.16;98866.47;4858591;29;20033;-75
2022/04/20 06:32:06;;;;;;;0.10;0.10;;;;;;;16.39;41.03;98861.88;4858815;29;20606;-75
2022/04/20 06:34:32;;;;;;;0.00;0.00;;;;;;;16.37;41.31;98868.72;4858500;29;20176;-77
2022/04/20 06:36:58;;;;;;;0.00;0.00;;;;;;;16.23;41.62;98866.97;4858544;29;20505;-77
2022/04/20 06:39:23;;;;;;;0.30;0.30;;;;;;;16.14;41.17;98864.28;4858488;29;20113;-77
2022/04/20 06:41:49;;;;;;;0.00;0.00;;;;;;;15.82;41.55;98858.22;4858628;29;20586;-78
2022/04/20 06:44:14;;;;;;;0.10;0.10;;;;;;;15.61;42.41;98849.13;4841974;29;20047;-77
2022/04/20 06:46:39;;;;;;;0.00;0.00;;;;;;;15.51;43.16;98840.25;4858484;29;20029;-77
2022/04/20 06:49:06;;;;;;;0.40;0.30;;;;;;;15.53;42.63;98848.00;4841923;29;20044;-75
2022/04/20 06:58:31;;;;;;;0.10;0.10;;;;;;;15.45;43.02;98846.06;4858224;29;20092;-75
2022/04/20 06:59:44;;;;;;;0.10;0.10;;;;;;;15.27;44.56;98842.53;4857920;29;20116;-77
2022/04/20 07:02:11;;;;;;;0.03;0.03;;;;;;;15.18;44.23;98843.31;4858686;29;20108;-77
2022/04/20 07:04:36;;;;;;;0.13;0.13;;;;;;;15.06;44.47;98835.00;4858751;29;20034;-77
2022/04/20 07:07:01;;;;;;;0.75;0.75;;;;;;;15.04;44.81;98837.22;4859064;29;20108;-76
2022/04/20 07:09:27;;;;;;;0.13;0.13;;;;;;;14.87;45.55;98833.34;4858538;29;20431;-76
2022/04/20 07:11:52;;;;;;;0.00;0.00;;;;;;;14.66;46.11;98827.69;4859021;29;20108;-75
2022/04/20 07:14:18;;;;;;;0.00;0.00;;;;;;;14.53;47.19;98829.31;4858581;29;20454;-75
2022/04/20 07:16:43;;;;;;;0.10;0.10;;;;;;;14.42;48.46;98819.94;4858847;29;20090;-77
2022/04/20 07:19:08;;;;;;;0.10;0.10;;;;;;;14.40;48.99;98812.16;4859069;29;20033;-75
2022/04/20 07:21:34;;;;;;;0.20;0.20;;;;;;;14.36;49.31;98813.09;4858813;29;20466;-75
2022/04/20 07:24:00;;;;;;;0.03;0.03;;;;;;;14.41;49.31;98821.84;4858692;29;20124;-75
2022/04/20 07:26:26;;;;;;;0.10;0.10;;;;;;;14.38;50.64;98819.75;4842184;29;20037;-75
2022/04/20 07:28:52;;;;;;;0.30;0.30;;;;;;;14.35;51.29;98804.19;4858541;29;20042;-75
2022/04/20 07:31:17;;;;;;;0.10;0.10;;;;;;;14.24;51.58;98827.88;4858488;29;20554;-75
2022/04/20 07:33:42;;;;;;;3.47;1.10;;;;;;;14.08;52.53;98813.19;4858269;29;20034;-75
2022/04/20 07:36:08;;;;;;;0.20;0.20;;;;;;;14.11;53.26;98809.91;4858470;29;20085;-75
2022/04/20 07:38:33;;;;;;;0.00;0.00;;;;;;;14.15;53.40;98802.03;4858418;29;20036;-75
2022/04/20 07:40:59;;;;;;;0.40;0.35;;;;;;;14.19;53.30;98811.06;4858612;29;20025;-75
2022/04/20 07:43:24;;;;;;;0.52;0.52;;;;;;;14.12;53.30;98798.03;4858497;29;20066;-75
2022/04/20 07:45:49;;;;;;;0.40;0.40;;;;;;;14.17;53.30;98797.13;4858408;29;20109;-75
2022/04/20 07:48:15;;;;;;;0.10;0.10;;;;;;;14.08;54.17;98794.38;4841992;29;20033;-75
2022/04/20 07:50:40;;;;;;;0.15;0.15;;;;;;;13.96;55.01;98794.91;4858371;29;20040;-75
2022/04/20 07:53:07;;;;;;;0.10;0.10;;;;;;;13.84;55.83;98782.03;4858453;29;20498;-78
2022/04/20 07:55:34;;;;;;;0.00;0.00;;;;;;;13.92;55.28;98785.88;4858435;29;20046;-76
2022/04/20 07:58:01;;;;;;;0.90;0.45;;;;;;;13.93;55.70;98774.81;4858684;29;20040;-77
2022/04/20 08:00:27;;;;;;;0.10;0.10;;;;;;;14.04;56.04;98777.28;4858548;29;20054;-77
2022/04/20 08:03:12;;;;;;;0.35;0.35;;;;;;;14.12;55.89;98770.38;4858219;29;20064;-76
2022/04/20 08:05:39;;;;;;;0.10;0.10;;;;;;;14.17;55.59;98760.28;4858544;29;20026;-77
2022/04/20 08:08:06;;;;;;;0.10;0.10;;;;;;;14.40;54.88;98762.94;4841862;29;20038;-77
2022/04/20 08:10:32;;;;;;;0.30;0.30;;;;;;;14.42;52.11;98760.75;4858466;29;20148;-76
2022/04/20 08:12:57;;;;;;;0.10;0.10;;;;;;;14.45;51.31;98738.59;4861713;29;20200;-77
2022/04/20 08:15:23;;;;;;;0.00;0.00;;;;;;;14.57;51.63;98744.19;4861587;29;20032;-77
2022/04/20 08:17:48;;;;;;;0.75;0.52;;;;;;;14.64;51.38;98734.88;4845021;29;20044;-76
2022/04/20 08:20:14;;;;;;;0.55;0.55;;;;;;;14.72;51.02;98739.53;4861717;29;20085;-77
2022/04/20 08:22:41;;;;;;;0.00;0.00;;;;;;;14.83;49.68;98740.03;4861499;29;20053;-76
2022/04/20 08:25:11;;;;;;;0.10;0.10;;;;;;;14.84;50.37;98731.69;4861700;29;20045;-76
2022/04/20 08:27:36;;;;;;;0.25;0.25;;;;;;;14.96;50.11;98738.34;4861385;29;20036;-77
2022/04/20 08:30:04;;;;;;;0.50;0.50;;;;;;;14.86;50.39;98721.38;4861661;29;20120;-77
2022/04/20 08:32:30;;;;;;;0.00;0.00;;;;;;;14.98;51.21;98718.09;4861619;29;20501;-76
2022/04/20 08:34:56;;;;;;;0.00;0.00;;;;;;;14.99;50.07;98719.66;4861243;29;20022;-76
2022/04/20 08:37:21;;;;;;;0.10;0.10;;;;;;;14.98;50.75;98720.78;4844895;29;20033;-76
2022/04/20 08:39:47;;;;;;;0.05;0.05;;;;;;;15.11;50.32;98702.91;4861517;29;20451;-77
2022/04/20 08:42:15;;;;;;;0.52;0.52;;;;;;;15.11;50.07;98716.38;4861375;29;20144;-76
2022/04/20 08:44:47;;;;;;;1.83;1.75;;;;;;;15.22;50.36;98706.06;4861193;29;20120;-77
2022/04/20 08:47:37;;;;;;;0.00;0.00;;;;;;;15.40;50.36;98709.59;4861244;29;20121;-77
2022/04/20 08:50:09;;;;;;;1.95;1.30;;;;;;;15.41;50.51;98700.41;4841543;29;20026;-76
2022/04/20 08:52:39;;;;;;;0.03;0.03;;;;;;;15.48;50.16;98691.84;4842954;29;20047;-75
2022/04/20 08:55:10;;;;;;;0.10;0.10;;;;;;;15.48;49.49;98705.31;4842731;29;20051;-76
2022/04/20 08:57:37;;;;;;;0.00;0.00;;;;;;;15.42;49.06;98701.19;4842590;29;20523;-78
2022/04/20 09:00:06;;;;;;;0.00;0.00;;;;;;;15.32;50.95;98691.53;4842455;29;20041;-76
2022/04/20 09:02:32;;;;;;;0.00;0.00;;;;;;;15.29;50.13;98698.31;4842700;29;20406;-76
2022/04/20 09:04:58;;;;;;;0.00;0.00;;;;;;;15.27;50.48;98697.88;4825610;29;20491;-76
2022/04/20 09:07:25;;;;;;;0.10;0.10;;;;;;;15.27;51.05;98703.25;4842287;29;20041;-75
2022/04/20 09:09:50;;;;;;;0.70;0.70;;;;;;;15.16;50.61;98708.13;4841993;29;20058;-75
2022/04/20 09:12:18;;;;;;;0.00;0.00;;;;;;;15.06;51.70;98703.03;4842468;29;20618;-78
2022/04/20 09:14:45;;;;;;;0.00;0.00;;;;;;;15.12;51.54;98698.31;4842231;29;20034;-77
2022/04/20 09:17:12;;;;;;;0.10;0.10;;;;;;;15.13;51.97;98711.44;4842368;29;20038;-75
2022/04/20 09:19:39;;;;;;;0.10;0.10;;;;;;;15.11;51.50;98715.56;4825523;29;20501;-75
2022/04/20 09:22:37;;;;;;;0.10;0.10;;;;;;;15.15;51.48;98716.53;4841960;29;20033;-75
2022/04/20 09:25:15;;;;;;;0.10;0.10;;;;;;;15.18;51.56;98719.41;4785971;29;20054;-77
2022/04/20 09:27:42;;;;;;;0.00;0.00;;;;;;;15.10;51.29;98711.28;4842020;29;20041;-76
2022/04/20 09:30:16;;;;;;;0.52;0.52;;;;;;;15.03;51.37;98715.22;4841580;29;20414;-76
2022/04/20 09:32:43;;;;;;;0.70;0.60;;;;;;;15.02;52.42;98708.25;4825284;29;20112;-77
2022/04/20 09:35:12;;;;;;;0.43;0.35;;;;;;;14.95;52.28;98713.34;4825529;29;20030;-76
2022/04/20 09:37:37;;;;;;;0.35;0.35;;;;;;;14.90;53.13;98718.84;4841786;29;20447;-77
2022/04/20 09:40:06;;;;;;;0.20;0.20;;;;;;;14.80;53.32;98711.84;4841675;29;20089;-76
2022/04/20 09:42:34;;;;;;;0.00;0.00;;;;;;;14.78;52.90;98715.97;4841828;29;20455;-76
2022/04/20 09:45:04;;;;;;;0.10;0.10;;;;;;;14.76;54.63;98716.28;4841648;29;20030;-76
2022/04/20 09:50:25;;;;;;;0.00;0.00;;;;;;;14.67;55.67;98727.03;4841844;29;20121;-76
2022/04/20 09:52:58;;;;;;;0.10;0.10;;;;;;;14.61;57.73;98727.44;4841532;29;20124;-76
2022/04/20 09:55:36;;;;;;;0.08;0.08;;;;;;;14.39;59.31;98755.97;4841635;29;20113;-76
2022/04/20 09:58:13;;;;;;;0.03;0.03;;;;;;;14.22;59.85;98746.69;4841743;29;20097;-76
2022/04/20 10:00:49;;;;;;;0.10;0.10;;;;;;;13.92;60.99;98732.13;4841309;29;20117;-76
2022/04/20 10:03:31;;;;;;;0.38;0.20;;;;;;;13.62;62.50;98729.03;4841281;29;20069;-75
2022/04/20 10:05:59;;;;;;;0.00;0.00;;;;;;;13.27;63.89;98731.41;4841475;29;20140;-77
2022/04/20 10:08:25;;;;;;;0.13;0.13;;;;;;;12.88;65.27;98716.63;4841452;29;20034;-77
2022/04/20 10:10:53;;;;;;;1.15;0.85;;;;;;;12.66;65.74;98718.13;4841052;29;20482;-77
2022/04/20 10:13:20;;;;;;;0.63;0.63;;;;;;;12.42;66.30;98729.81;4841446;29;20034;-77
2022/04/20 10:18:33;;;;;;;0.30;0.30;;;;;;;12.22;67.65;98719.44;4841314;29;20041;-77
2022/04/20 10:21:01;;;;;;;1.35;1.35;;;;;;;12.20;67.35;98719.72;4840902;29;20070;-77
2022/04/20 10:23:31;;;;;;;0.08;0.08;;;;;;;12.09;68.06;98723.69;4841103;29;20037;-77
2022/04/20 10:25:59;;;;;;;0.17;0.17;;;;;;;11.96;67.89;98704.59;4840897;29;20057;-77
2022/04/20 10:28:47;;;;;;;0.37;0.37;;;;;;;11.90;67.88;98700.38;4841021;29;20503;-77
2022/04/20 10:31:58;;;;;;;0.40;0.40;;;;;;;11.89;68.60;98709.50;4806072;29;20400;-77
2022/04/20 10:34:25;;;;;;;0.30;0.30;;;;;;;11.79;69.01;98705.09;4840360;29;20116;-77
2022/04/20 10:37:02;;;;;;;0.30;0.30;;;;;;;11.62;69.69;98692.22;4840543;29;20030;-77
2022/04/20 10:39:33;;;;;;;0.30;0.30;;;;;;;11.64;70.56;98698.06;4840740;29;20505;-77
2022/04/20 10:42:32;;;;;;;0.00;0.00;;;;;;;11.80;71.05;98692.50;4840119;29;20081;-77
2022/04/20 10:45:07;;;;;;;0.10;0.10;;;;;;;12.03;69.42;98696.16;4834577;29;20166;-77
2022/04/20 10:47:42;;;;;;;0.30;0.30;;;;;;;12.17;68.59;98691.63;4859266;29;20052;-77
2022/04/20 10:50:28;;;;;;;0.00;0.00;;;;;;;12.14;67.66;98692.22;4859264;29;20034;-77
2022/04/20 10:53:03;;;;;;;0.43;0.43;;;;;;;12.17;68.45;98682.81;4858868;29;20030;-77
2022/04/20 10:55:31;;;;;;;0.00;0.00;;;;;;;12.28;68.92;98684.22;4859373;29;20030;-75
2022/04/20 10:58:01;;;;;;;0.10;0.10;;;;;;;12.23;68.54;98678.94;4858967;29;20037;-77
2022/04/20 11:00:33;;;;;;;0.28;0.28;;;;;;;12.31;68.29;98674.78;4842382;29;20610;-77
2022/04/20 11:03:03;;;;;;;0.47;0.47;;;;;;;12.33;68.93;98670.69;4842066;29;20656;-76
2022/04/20 11:05:29;;;;;;;0.20;0.20;;;;;;;12.42;68.27;98676.16;4859065;29;20037;-75
2022/04/20 11:08:12;;;;;;;0.00;0.00;;;;;;;12.55;68.68;98674.59;4858516;29;20113;-77
2022/04/20 11:10:43;;;;;;;0.10;0.10;;;;;;;12.65;68.12;98671.69;4858938;29;20045;-77
2022/04/20 11:19:07;;;;;;;0.00;0.00;;;;;;;12.74;67.00;98666.44;4858358;29;20605;-75
2022/04/20 11:21:33;;;;;;;0.20;0.20;;;;;;;12.68;66.78;98659.56;4858878;29;20490;-75
2022/04/20 11:24:03;;;;;;;0.08;0.08;;;;;;;12.70;66.49;98659.28;4858546;29;20078;-75
2022/04/20 11:26:46;;;;;;;0.00;0.00;;;;;;;12.69;66.77;98657.69;4858414;29;20478;-77
2022/04/20 11:29:17;;;;;;;8.68;0.85;;;;;;;12.74;66.58;98657.59;4859059;29;20033;-77
2022/04/20 11:31:45;;;;;;;0.00;0.00;;;;;;;12.78;66.80;98650.53;4858508;29;20053;-77
2022/04/20 11:34:11;;;;;;;0.00;0.00;;;;;;;12.85;66.58;98642.84;4858755;29;20083;-75
2022/04/20 11:36:42;;;;;;;0.00;0.00;;;;;;;12.68;66.85;98645.38;4859019;29;20087;-76
2022/04/20 11:39:09;;;;;;;0.10;0.10;;;;;;;12.68;66.86;98648.06;4858702;29;20041;-77
2022/04/20 11:41:35;;;;;;;0.00;0.00;;;;;;;12.65;67.04;98638.72;4858741;29;20033;-77
2022/04/20 11:44:01;;;;;;;0.10;0.10;;;;;;;12.68;67.15;98640.78;4858360;29;20097;-76
2022/04/20 11:46:27;;;;;;;0.05;0.05;;;;;;;12.70;66.73;98619.03;4861727;29;20042;-76
2022/04/20 11:48:57;;;;;;;0.63;0.60;;;;;;;12.69;67.32;98630.88;4862129;29;20034;-76
2022/04/20 11:51:28;;;;;;;0.32;0.32;;;;;;;12.79;67.59;98625.28;4861998;29;20374;-76
2022/04/20 11:53:55;;;;;;;0.00;0.00;;;;;;;12.78;67.85;98632.53;4862007;29;20025;-75
2022/04/20 11:56:39;;;;;;;3.70;1.23;;;;;;;12.90;67.34;98628.53;4861659;29;20048;-76
2022/04/20 11:59:08;;;;;;;0.65;0.65;;;;;;;12.91;67.92;98617.50;4861295;29;20032;-76
2022/04/20 12:01:35;;;;;;;;;;;;;;;12.96;68.14;98613.91;4861947;29;20064;-76
2022/04/20 12:04:04;;;;;;;0.00;0.00;;;;;;;13.07;68.50;98614.47;4861140;29;19916;-76
2022/04/20 12:06:30;;;;;;;0.00;0.00;;;;;;;13.16;69.20;98607.31;4861406;29;20037;-76
2022/04/20 12:08:55;;;;;;;0.10;0.10;;;;;;;13.25;69.17;98597.41;4844520;29;20545;-76
2022/04/20 12:11:21;;;;;;;0.00;0.00;;;;;;;13.43;68.35;98595.69;4861234;29;20053;-76
2022/04/20 12:13:54;;;;;;;0.10;0.10;;;;;;;13.55;68.29;98586.25;4860988;29;20070;-76
2022/04/20 12:16:21;;;;;;;0.00;0.00;;;;;;;13.59;66.76;98588.03;4861302;29;20037;-76
2022/04/20 12:18:46;;;;;;;0.00;0.00;;;;;;;13.69;66.29;98584.31;4860907;29;20061;-76
2022/04/20 12:21:40;;;;;;;0.22;0.22;;;;;;;13.85;65.25;98575.84;4844565;29;20634;-77
2022/04/20 12:24:08;;;;;;;0.20;0.20;;;;;;;13.99;63.11;98581.13;4860946;29;20034;-76
2022/04/20 12:26:34;;;;;;;0.00;0.00;;;;;;;14.04;63.34;98570.25;4861211;29;20470;-76
2022/04/20 12:29:01;;;;;;;0.03;0.03;;;;;;;14.15;63.41;98560.78;4860673;29;20037;-76
2022/04/20 12:31:27;;;;;;;0.00;0.00;;;;;;;14.15;62.62;98543.88;4844348;29;20566;-76
2022/04/20 12:34:03;;;;;;;0.22;0.17;;;;;;;14.21;60.29;98540.72;4860745;29;20030;-76
2022/04/20 12:36:31;;;;;;;0.10;0.10;;;;;;;14.28;59.97;98542.97;4860987;29;20037;-76
2022/04/20 12:38:58;;;;;;;0.00;0.00;;;;;;;14.33;59.52;98529.38;4844119;29;20476;-76
2022/04/20 12:41:54;;;;;;;0.40;0.40;;;;;;;14.37;58.56;98535.69;4861092;29;20043;-76
2022/04/20 12:44:51;;;;;;;0.00;0.00;;;;;;;14.43;58.52;98522.91;4844886;29;20046;-76
2022/04/20 12:47:17;;;;;;;0.20;0.20;;;;;;;14.43;58.94;98517.50;4860784;29;20124;-76
2022/04/20 12:49:49;;;;;;;0.00;0.00;;;;;;;14.51;58.75;98516.75;4860968;29;20476;-76
2022/04/20 12:52:16;;;;;;;0.15;0.15;;;;;;;14.47;58.16;98507.69;4860644;29;20033;-76
2022/04/20 12:54:57;;;;;;;0.00;0.00;;;;;;;14.69;57.22;98511.38;4860684;29;20033;-76
2022/04/20 13:03:03;;;;;;;0.00;0.00;;;;;;;14.67;57.54;98494.75;4860778;29;20121;-76
2022/04/20 13:05:30;;;;;;;1.05;0.95;;;;;;;14.65;57.66;98487.00;4861335;29;20038;-76
2022/04/20 13:07:56;;;;;;;0.40;0.40;;;;;;;14.74;57.19;98478.94;4860822;29;20041;-76
2022/04/20 13:10:22;;;;;;;0.10;0.10;;;;;;;14.83;57.00;98474.34;4860928;29;20498;-76
2022/04/20 13:12:52;;;;;;;0.40;0.40;;;;;;;14.86;56.99;98468.31;4860761;29;20045;-76
2022/04/20 13:15:18;;;;;;;0.10;0.10;;;;;;;14.98;56.80;98469.59;4844330;29;20534;-76
2022/04/20 13:17:44;;;;;;;0.30;0.30;;;;;;;15.01;56.63;98455.47;4860887;29;20041;-76
2022/04/20 13:20:10;;;;;;;0.40;0.40;;;;;;;15.00;56.19;98456.56;4860532;29;20028;-76
2022/04/20 13:22:36;;;;;;;0.20;0.20;;;;;;;14.97;56.44;98458.00;4860709;29;20379;-76
2022/04/20 13:27:54;;;;;;;0.20;0.20;;;;;;;14.99;56.48;98445.03;4860708;29;20048;-76
2022/04/20 13:30:24;;;;;;;0.00;0.00;;;;;;;15.04;56.60;98446.75;4860389;29;20032;-76
2022/04/20 13:32:53;;;;;;;0.77;0.77;;;;;;;14.92;56.57;98435.84;4860416;29;20037;-77
2022/04/20 13:35:19;;;;;;;0.10;0.10;;;;;;;14.86;57.30;98433.31;4860454;29;20029;-76
2022/04/20 13:37:44;;;;;;;0.10;0.10;;;;;;;14.88;57.11;98430.31;4860231;29;20097;-76
2022/04/20 13:40:10;;;;;;;0.10;0.10;;;;;;;14.83;57.43;98420.50;4843730;29;20029;-76
2022/04/20 13:42:37;;;;;;;0.03;0.03;;;;;;;14.81;57.72;98419.25;4843729;29;20029;-76
2022/04/20 13:45:06;;;;;;;0.35;0.35;;;;;;;14.80;57.61;98404.19;4860418;29;20044;-76
2022/04/20 13:47:32;;;;;;;0.00;0.00;;;;;;;14.89;58.11;98408.47;4860373;29;20532;-76
2022/04/20 13:49:57;;;;;;;0.00;0.00;;;;;;;14.95;57.86;98406.41;4859961;29;20025;-76
2022/04/20 13:52:23;;;;;;;0.10;0.10;;;;;;;14.92;57.87;98393.56;4859992;29;20414;-76
2022/04/20 13:54:55;;;;;;;0.40;0.40;;;;;;;14.91;56.88;98372.34;4860299;29;20033;-76
2022/04/20 13:57:23;;;;;;;0.10;0.10;;;;;;;14.84;57.08;98388.97;4859718;29;20030;-76
2022/04/20 13:59:49;;;;;;;0.00;0.00;;;;;;;14.80;57.95;98393.44;4859582;29;20036;-76
2022/04/20 14:02:15;;;;;;;0.40;0.40;;;;;;;14.79;58.32;98379.16;4860200;29;20029;-76
2022/04/20 14:04:41;;;;;;;0.40;0.40;;;;;;;14.78;57.74;98379.50;4860084;29;20578;-76
2022/04/20 14:07:06;;;;;;;0.03;0.03;;;;;;;14.82;57.71;98367.00;4859656;29;20214;-76
2022/04/20 14:09:33;;;;;;;0.10;0.10;;;;;;;14.77;58.08;98376.03;4842089;29;20121;-75